Time;durP1;ratioP1;P1;durP2;ratioP2;P2;SDS_P1;SDS_P2;PMS_P1;PMS_P2;Temp;Humidity;BMP_temperature;BMP_pressure;BME280_temperature;BME280_humidity;BME280_pressure;Samples;Min_cycle;Max_cycle;Signal;HPM_P1;HPM_P2
2021/12/10 00:02:03;;;;;;;0.80;0.77;;;4.90;99.90;;;4.98;89.91;99303.88;5051719;28;20212;-69
2021/12/10 00:04:35;;;;;;;1.08;1.08;;;4.80;99.90;;;4.91;89.83;99295.72;5053202;28;20205;-65
2021/12/10 00:07:15;;;;;;;1.27;0.85;;;4.80;99.90;;;4.91;90.17;99297.47;5036049;28;20202;-69
2021/12/10 00:09:47;;;;;;;1.13;1.02;;;4.80;99.90;;;4.98;90.36;99294.38;5048178;28;20315;-69
2021/12/10 00:12:23;;;;;;;3.42;1.67;;;4.90;99.90;;;4.98;90.31;99284.03;5050986;28;20200;-68
2021/12/10 00:14:51;;;;;;;1.77;1.40;;;4.80;99.90;;;4.99;90.24;99277.91;5050230;28;20197;-67
2021/12/10 00:17:20;;;;;;;1.77;1.25;;;4.90;99.90;;;5.03;89.86;99275.91;5049767;28;20197;-68
2021/12/10 00:19:53;;;;;;;1.15;1.02;;;4.90;99.90;;;5.00;89.66;99260.66;5051906;28;20696;-68
2021/12/10 00:22:29;;;;;;;1.40;1.23;;;4.90;99.90;;;5.05;89.63;99266.31;5053090;28;20202;-67
2021/12/10 00:24:56;;;;;;;1.35;0.95;;;4.90;99.90;;;5.12;88.47;99254.59;5044625;28;20217;-68
2021/12/10 00:27:29;;;;;;;0.60;0.60;;;5.00;99.90;;;5.08;88.06;99248.84;5047523;28;20215;-69
2021/12/10 00:30:15;;;;;;;3.40;1.42;;;5.00;99.90;;;5.09;88.46;99254.84;5035955;28;20736;-68
2021/12/10 00:33:11;;;;;;;2.47;1.80;;;4.90;99.90;;;5.12;88.73;99252.00;5050383;28;20376;-69
2021/12/10 00:35:40;;;;;;;1.10;0.73;;;5.00;99.90;;;5.12;88.86;99244.25;5048284;28;20205;-68
2021/12/10 00:38:09;;;;;;;2.63;1.60;;;5.00;99.90;;;5.18;87.50;99238.66;5051266;28;20324;-68
2021/12/10 00:40:36;;;;;;;1.58;0.98;;;5.10;99.90;;;5.17;87.34;99230.09;5050920;28;20616;-68
2021/12/10 00:43:04;;;;;;;0.93;0.90;;;5.00;99.90;;;5.13;87.29;99227.81;5051343;28;20201;-69
2021/12/10 00:45:31;;;;;;;1.55;1.13;;;5.00;99.90;;;5.03;87.72;99217.31;5050771;28;20213;-68
2021/12/10 00:47:59;;;;;;;0.88;0.88;;;4.90;99.90;;;4.98;87.72;99221.16;5052641;28;20221;-69
2021/12/10 00:50:32;;;;;;;1.38;1.38;;;4.80;99.90;;;4.85;88.13;99210.03;5049811;28;20312;-68
2021/12/10 00:53:00;;;;;;;0.73;0.73;;;4.60;99.90;;;4.75;88.84;99199.50;5050601;28;20197;-69
2021/12/10 00:55:27;;;;;;;1.30;1.30;;;4.60;99.90;;;4.67;89.32;99207.81;5039275;28;20201;-67
2021/12/10 00:57:56;;;;;;;1.35;1.20;;;4.40;99.90;;;4.60;89.71;99191.09;5051472;28;20221;-68
2021/12/10 01:00:50;;;;;;;1.60;1.50;;;4.40;99.90;;;4.49;90.43;99193.59;5042975;28;20758;-68
2021/12/10 01:03:23;;;;;;;2.58;1.60;;;4.30;99.90;;;4.47;90.47;99187.72;5046328;28;20208;-68
2021/12/10 01:05:56;;;;;;;1.38;1.20;;;4.30;99.90;;;4.42;90.63;99191.56;5047650;28;20669;-69
2021/12/10 01:08:23;;;;;;;1.40;1.40;;;4.20;99.90;;;4.36;91.53;99190.25;5051769;28;20228;-68
2021/12/10 01:10:58;;;;;;;3.75;1.83;;;4.10;99.90;;;4.34;91.16;99183.53;5051885;28;20550;-69
2021/12/10 01:13:30;;;;;;;1.92;1.10;;;4.10;99.90;;;4.36;91.21;99179.06;5051900;28;20672;-69
2021/12/10 01:27:28;;;;;;;2.55;1.30;;;4.00;99.90;;;4.14;91.33;99141.00;5017239;28;20209;-67
2021/12/10 01:30:00;;;;;;;3.05;1.60;;;4.00;99.90;;;4.08;91.55;99128.53;5017694;28;20236;-68
2021/12/10 01:32:33;;;;;;;1.85;1.33;;;3.90;99.90;;;4.04;91.82;99134.00;5049515;28;20643;-68
2021/12/10 01:35:00;;;;;;;1.95;1.50;;;3.90;99.90;;;4.00;91.82;99133.41;5049633;28;20524;-69
2021/12/10 01:37:27;;;;;;;1.45;1.35;;;3.80;99.90;;;3.94;91.79;99126.06;5050104;28;20244;-69
2021/12/10 01:39:56;;;;;;;1.55;1.45;;;3.80;99.90;;;3.93;91.78;99127.00;5050370;28;20201;-68
2021/12/10 01:44:58;;;;;;;1.10;1.05;;;3.70;99.90;;;3.89;91.69;99125.56;5050974;28;20211;-69
2021/12/10 01:47:35;;;;;;;1.63;1.52;;;3.70;99.90;;;3.86;91.83;99112.84;5034604;28;20205;-69
2021/12/10 01:50:07;;;;;;;1.42;1.33;;;3.70;99.90;;;3.83;92.11;99106.16;5031165;28;20225;-67
2021/12/10 01:52:35;;;;;;;2.33;1.80;;;3.70;99.90;;;3.80;91.63;99103.81;5042625;28;20201;-68
2021/12/10 01:55:04;;;;;;;1.23;1.13;;;3.70;99.90;;;3.78;92.01;99107.41;5051506;28;20617;-68
2021/12/10 01:57:35;;;;;;;1.40;1.30;;;3.60;99.90;;;3.76;92.43;99084.31;5036451;28;20228;-69
2021/12/10 02:00:09;;;;;;;1.98;1.50;;;3.60;99.90;;;3.75;92.11;99097.28;5039355;28;20670;-68
2021/12/10 02:02:41;;;;;;;0.77;0.60;;;3.60;99.90;;;3.74;92.37;99096.47;5049735;28;20201;-68
2021/12/10 02:05:09;;;;;;;0.93;0.93;;;3.60;99.90;;;3.79;92.47;99084.06;5048124;28;20209;-66
2021/12/10 02:07:37;;;;;;;3.53;1.05;;;3.60;99.90;;;3.74;92.22;99081.00;5040914;28;20225;-68
2021/12/10 02:10:09;;;;;;;1.77;1.67;;;3.60;99.90;;;3.76;92.09;99071.41;5050456;28;20218;-67
2021/12/10 02:12:36;;;;;;;1.08;1.00;;;3.60;99.90;;;3.70;92.46;99068.41;5049227;28;20189;-68
2021/12/10 02:15:05;;;;;;;1.60;1.23;;;3.50;99.90;;;3.71;92.17;99052.00;5048957;28;20415;-68
2021/12/10 02:17:38;;;;;;;1.00;0.70;;;3.60;99.90;;;3.67;92.01;99037.66;5031676;28;20228;-68
2021/12/10 02:20:11;;;;;;;1.38;1.27;;;3.50;99.90;;;3.68;92.03;99035.00;5049736;28;20580;-67
2021/12/10 02:22:39;;;;;;;0.65;0.65;;;3.50;99.90;;;3.58;92.72;99027.97;5049661;28;20215;-68
2021/12/10 02:25:07;;;;;;;1.60;1.50;;;3.50;99.90;;;3.60;91.92;99026.94;5048352;28;20665;-67
2021/12/10 02:27:35;;;;;;;1.63;1.52;;;3.50;99.90;;;3.58;92.76;99022.81;5048871;28;20225;-69
2021/12/10 02:30:04;;;;;;;0.63;0.63;;;3.50;99.90;;;3.54;92.46;99016.22;5043085;28;20230;-69
2021/12/10 02:32:31;;;;;;;2.55;1.20;;;3.40;99.90;;;3.54;92.23;99011.91;5029336;28;20204;-69
2021/12/10 02:34:58;;;;;;;1.15;1.15;;;3.40;99.90;;;3.48;91.77;99003.75;5039690;28;20493;-69
2021/12/10 02:37:25;;;;;;;0.88;0.88;;;3.30;99.90;;;3.43;92.27;99003.28;5047887;28;20212;-69
2021/12/10 02:39:52;;;;;;;4.95;1.20;;;3.30;99.90;;;3.42;91.76;99002.44;5032164;28;20206;-69
2021/12/10 02:42:19;;;;;;;1.02;0.68;;;3.30;99.90;;;3.36;91.69;98999.47;5033786;28;20209;-69
2021/12/10 02:44:46;;;;;;;0.50;0.50;;;3.20;99.90;;;3.32;92.29;98995.44;5019730;28;20206;-68
2021/12/10 02:47:13;;;;;;;0.60;0.60;;;3.20;99.90;;;3.29;91.86;98986.16;5049911;28;20684;-69
2021/12/10 02:49:40;;;;;;;3.50;1.17;;;3.20;99.90;;;3.29;91.69;98988.75;5053058;28;20583;-69
2021/12/10 02:52:10;;;;;;;1.25;0.70;;;3.20;99.90;;;3.21;91.16;98985.03;5047212;28;20206;-67
2021/12/10 02:54:37;;;;;;;1.15;0.47;;;3.10;99.90;;;3.17;91.72;98983.59;5051773;28;20197;-67
2021/12/10 02:57:10;;;;;;;0.63;0.63;;;3.10;99.90;;;3.14;91.20;98980.28;5052926;28;20581;-67
2021/12/10 02:59:38;;;;;;;1.63;0.70;;;3.10;99.90;;;3.14;91.92;98977.72;5042894;28;20232;-67
2021/12/10 03:02:13;;;;;;;0.85;0.85;;;3.00;99.90;;;3.17;91.00;98972.34;5046921;28;20205;-67
2021/12/10 03:04:42;;;;;;;1.20;1.20;;;3.10;99.90;;;3.11;91.55;98967.59;5054106;28;20219;-69
2021/12/10 03:07:18;;;;;;;2.40;0.70;;;3.00;99.90;;;3.10;91.20;98953.09;5053626;28;20205;-68
2021/12/10 03:09:50;;;;;;;5.93;0.75;;;3.00;99.90;;;3.08;91.48;98949.81;5049353;28;20236;-69
2021/12/10 03:12:21;;;;;;;1.05;0.77;;;2.90;99.90;;;3.05;91.74;98947.41;5033949;28;20197;-68
2021/12/10 03:14:53;;;;;;;2.00;1.38;;;2.90;99.90;;;3.06;91.48;98943.94;5041539;28;20584;-69
2021/12/10 03:17:25;;;;;;;0.73;0.70;;;2.90;99.90;;;3.03;91.05;98938.97;5037000;28;20205;-69
2021/12/10 03:19:54;;;;;;;1.48;0.88;;;2.90;99.90;;;2.96;91.70;98927.41;5033289;28;20213;-68
2021/12/10 03:22:22;;;;;;;0.68;0.68;;;2.80;99.90;;;2.94;91.65;98918.97;5045490;28;20301;-68
2021/12/10 03:24:52;;;;;;;8.98;1.73;;;2.90;99.90;;;2.92;91.85;98905.38;5053486;28;20205;-68
2021/12/10 03:27:22;;;;;;;2.15;0.55;;;2.80;99.90;;;3.01;90.70;98902.19;5052418;28;20284;-68
2021/12/10 03:29:50;;;;;;;0.68;0.68;;;2.90;99.90;;;3.02;90.51;98901.22;5049963;28;20222;-68
2021/12/10 03:32:24;;;;;;;0.50;0.50;;;2.90;99.90;;;2.97;90.20;98898.16;5051038;28;20429;-69
2021/12/10 03:34:52;;;;;;;0.30;0.30;;;2.90;99.90;;;2.99;90.31;98890.34;5051625;28;20574;-70
2021/12/10 03:37:20;;;;;;;4.72;1.13;;;2.90;99.90;;;3.00;90.05;98897.94;5052277;28;20204;-68
2021/12/10 03:39:49;;;;;;;7.35;1.05;;;2.90;99.90;;;3.03;89.56;98889.19;5051949;28;20213;-70
2021/12/10 03:42:17;;;;;;;1.08;1.08;;;2.90;99.90;;;2.98;90.34;98874.03;5051652;28;20210;-68
2021/12/10 03:44:44;;;;;;;0.73;0.73;;;2.90;99.90;;;2.97;90.09;98884.47;5051917;28;20205;-68
2021/12/10 03:47:12;;;;;;;0.20;0.20;;;2.90;99.90;;;2.92;90.05;98871.88;5052044;28;20197;-68
2021/12/10 03:49:40;;;;;;;1.17;0.90;;;2.80;99.90;;;2.95;89.95;98858.81;5050486;28;20217;-68
2021/12/10 03:52:09;;;;;;;1.00;1.00;;;2.80;99.90;;;2.94;90.20;98867.47;5038206;28;20237;-67
2021/12/10 03:54:38;;;;;;;2.35;0.63;;;2.80;99.90;;;2.92;89.02;98871.88;5044394;28;20212;-69
2021/12/10 03:57:07;;;;;;;0.90;0.90;;;2.80;99.90;;;2.89;89.22;98872.13;5053717;28;20284;-70
2021/12/10 03:59:36;;;;;;;1.00;0.95;;;2.80;99.90;;;2.91;90.01;98872.00;5051348;28;20658;-69
2021/12/10 04:02:06;;;;;;;0.40;0.40;;;2.80;99.90;;;2.85;89.64;98852.66;5052470;28;20240;-67
2021/12/10 04:04:44;;;;;;;0.60;0.60;;;2.80;99.90;;;2.94;89.19;98858.91;5050755;28;20736;-67
2021/12/10 04:07:25;;;;;;;0.52;0.52;;;2.80;99.90;;;2.90;89.50;98850.56;5051669;28;20201;-67
2021/12/10 04:09:53;;;;;;;0.80;0.80;;;2.80;99.90;;;2.88;88.73;98857.56;5052130;28;20217;-68
2021/12/10 04:12:22;;;;;;;0.40;0.40;;;2.80;99.90;;;2.93;89.06;98841.81;5052508;28;20205;-68
2021/12/10 04:14:51;;;;;;;0.90;0.90;;;2.80;99.90;;;2.92;88.92;98853.88;5049576;28;20190;-68
2021/12/10 04:17:20;;;;;;;0.88;0.88;;;2.80;99.90;;;2.88;89.36;98844.69;5051466;28;20206;-68
2021/12/10 04:19:50;;;;;;;0.90;0.90;;;2.80;99.90;;;2.90;89.63;98844.59;5050955;28;20202;-68
2021/12/10 04:22:19;;;;;;;2.05;1.80;;;2.80;99.90;;;2.85;88.98;98839.78;5039565;28;20686;-68
2021/12/10 04:24:46;;;;;;;5.75;1.63;;;2.70;99.90;;;2.86;89.52;98831.09;5042864;28;20587;-67
2021/12/10 04:27:17;;;;;;;1.00;0.90;;;2.70;99.90;;;2.89;89.68;98838.63;5050896;28;20201;-67
2021/12/10 04:29:46;;;;;;;0.70;0.70;;;2.80;99.90;;;2.88;89.09;98826.66;5050343;28;20701;-68
2021/12/10 04:32:14;;;;;;;1.13;1.10;;;2.80;99.90;;;2.89;89.34;98814.63;5051260;28;20201;-68
2021/12/10 04:34:41;;;;;;;1.00;1.00;;;2.80;99.90;;;2.82;89.43;98814.22;5050755;28;20684;-68
2021/12/10 04:37:10;;;;;;;1.42;1.35;;;2.70;99.90;;;2.86;89.37;98809.66;5050399;28;20212;-68
2021/12/10 04:39:44;;;;;;;0.90;0.90;;;2.80;99.90;;;2.89;89.20;98809.47;5052464;28;20677;-68
2021/12/10 04:42:17;;;;;;;2.45;1.30;;;2.80;99.90;;;2.85;89.35;98800.31;5050433;28;20193;-67
2021/12/10 04:44:44;;;;;;;1.40;1.20;;;2.70;99.90;;;2.83;89.70;98791.88;5049923;28;20212;-69
2021/12/10 04:47:11;;;;;;;1.52;1.40;;;2.70;99.90;;;2.81;89.84;98786.81;5051606;28;20643;-68
2021/12/10 04:49:38;;;;;;;1.25;1.25;;;2.70;99.90;;;2.81;89.87;98786.00;5051352;28;20243;-68
2021/12/10 04:52:07;;;;;;;3.00;1.25;;;2.70;99.90;;;2.77;90.23;98780.22;5050142;28;20201;-67
2021/12/10 04:54:38;;;;;;;1.15;1.15;;;2.70;99.90;;;2.72;90.02;98772.03;5049994;28;20201;-68
2021/12/10 04:57:06;;;;;;;2.13;1.35;;;2.60;99.90;;;2.74;89.89;98767.59;5051609;28;20200;-68
2021/12/10 04:59:35;;;;;;;1.05;0.82;;;2.60;99.90;;;2.67;90.14;98763.78;5049659;28;20201;-68
2021/12/10 05:02:08;;;;;;;0.90;0.90;;;2.50;99.90;;;2.67;90.08;98762.94;5052536;28;20673;-69
2021/12/10 05:04:37;;;;;;;6.28;1.15;;;2.50;99.90;;;2.63;89.80;98756.38;5061567;28;20201;-69
2021/12/10 05:07:05;;;;;;;1.15;1.15;;;2.50;99.90;;;2.59;89.92;98750.63;5049218;28;20224;-69
2021/12/10 05:09:33;;;;;;;1.73;1.38;;;2.50;99.90;;;2.56;90.00;98752.56;5051885;28;20202;-70
2021/12/10 05:12:01;;;;;;;1.13;0.95;;;2.40;99.90;;;2.55;90.88;98745.78;5034722;28;20231;-68
2021/12/10 05:14:30;;;;;;;1.08;1.08;;;2.40;99.90;;;2.57;89.79;98749.91;5034610;28;20685;-68
2021/12/10 05:17:03;;;;;;;1.40;1.00;;;2.50;99.90;;;2.57;89.67;98742.19;5052199;28;20216;-68
2021/12/10 05:19:31;;;;;;;2.60;1.25;;;2.50;99.90;;;2.72;88.18;98742.88;5049713;28;20728;-69
2021/12/10 05:22:02;;;;;;;0.93;0.93;;;2.70;99.90;;;2.73;87.91;98737.59;5039257;28;20688;-70
2021/12/10 05:24:31;;;;;;;0.40;0.40;;;2.60;99.90;;;2.85;86.03;98734.19;5033946;28;20193;-70
2021/12/10 05:27:00;;;;;;;0.60;0.60;;;2.80;99.90;;;2.92;86.17;98737.94;5050884;28;20201;-69
2021/12/10 05:29:28;;;;;;;5.65;1.38;;;2.90;99.90;;;3.00;85.22;98738.22;5065306;28;20243;-68
2021/12/10 05:31:58;;;;;;;1.10;0.82;;;2.90;99.90;;;3.10;84.69;98728.09;5048912;28;20200;-65
2021/12/10 05:34:26;;;;;;;0.63;0.57;;;3.00;99.90;;;3.26;82.70;98720.09;5048629;28;20215;-69
2021/12/10 05:36:53;;;;;;;1.00;0.90;;;3.10;99.90;;;3.27;82.04;98721.72;5045173;28;20202;-69
2021/12/10 05:39:23;;;;;;;26.20;1.17;;;3.20;99.90;;;3.32;81.33;98707.59;5029466;28;20233;-69
2021/12/10 05:41:53;;;;;;;1.30;0.40;;;3.30;99.90;;;3.33;81.09;98698.09;5034513;28;20205;-69
2021/12/10 05:44:20;;;;;;;0.50;0.50;;;3.20;99.90;;;3.31;81.10;98687.06;5049474;28;20684;-69
2021/12/10 05:46:47;;;;;;;1.85;0.60;;;3.20;99.90;;;3.29;81.08;98671.72;5049561;28;20202;-69
2021/12/10 05:49:15;;;;;;;0.45;0.45;;;3.20;99.90;;;3.28;80.69;98667.50;5050975;28;20256;-68
2021/12/10 05:51:42;;;;;;;0.40;0.40;;;3.20;99.90;;;3.24;80.15;98658.34;5050108;28;20311;-68
2021/12/10 05:54:09;;;;;;;1.33;0.68;;;3.20;99.90;;;3.34;80.76;98658.50;5066159;28;20201;-69
2021/12/10 05:56:36;;;;;;;1.50;0.90;;;3.20;99.90;;;3.36;81.07;98654.06;5050494;28;20208;-69
2021/12/10 05:59:04;;;;;;;5.07;0.63;;;3.30;99.90;;;3.44;80.19;98649.97;5066343;28;20451;-70
2021/12/10 06:01:32;;;;;;;1.15;1.08;;;3.30;99.90;;;3.41;79.64;98645.03;5049312;28;20205;-69
2021/12/10 06:03:59;;;;;;;1.20;1.20;;;3.30;99.90;;;3.40;80.32;98643.41;5049860;28;20219;-69
2021/12/10 06:06:31;;;;;;;0.95;0.60;;;3.30;99.90;;;3.40;80.36;98635.69;5048958;28;20215;-69
2021/12/10 06:09:04;;;;;;;0.73;0.73;;;3.30;99.90;;;3.41;80.55;98634.72;5050064;28;20244;-69
2021/12/10 06:11:31;;;;;;;0.60;0.60;;;3.30;99.90;;;3.40;80.05;98634.84;5048979;28;20689;-69
2021/12/10 06:13:58;;;;;;;0.88;0.88;;;3.30;99.90;;;3.36;80.50;98634.25;5050731;28;20291;-69
2021/12/10 06:16:25;;;;;;;0.60;0.60;;;3.30;99.90;;;3.36;79.83;98633.44;5053131;28;20665;-69
2021/12/10 06:18:53;;;;;;;0.40;0.40;;;3.30;99.90;;;3.33;79.72;98623.34;5055335;28;20217;-69
2021/12/10 06:21:20;;;;;;;1.02;1.02;;;3.20;99.90;;;3.30;79.78;98626.16;5051473;28;20665;-69
2021/12/10 06:23:48;;;;;;;0.85;0.85;;;3.20;99.90;;;3.24;80.18;98631.78;5054897;28;20648;-69
2021/12/10 06:26:15;;;;;;;0.80;0.80;;;3.20;99.90;;;3.17;80.78;98618.53;5053810;28;20205;-69
2021/12/10 06:28:44;;;;;;;0.30;0.30;;;3.10;99.90;;;3.13;80.51;98612.75;5055072;28;20236;-70
2021/12/10 06:31:17;;;;;;;0.50;0.50;;;3.10;99.90;;;3.10;81.21;98610.41;5052859;28;20221;-69
2021/12/10 06:33:44;;;;;;;1.65;1.40;;;3.00;99.90;;;3.07;81.18;98602.06;5053678;28;20208;-70
2021/12/10 06:36:13;;;;;;;0.30;0.30;;;3.00;99.90;;;3.10;81.71;98601.84;5067119;28;20839;-68
2021/12/10 06:38:40;;;;;;;1.02;1.02;;;3.00;99.90;;;3.08;81.71;98596.00;5052576;28;20751;-70
2021/12/10 06:41:08;;;;;;;0.40;0.40;;;3.00;99.90;;;3.05;82.61;98586.72;5047916;28;20208;-69
2021/12/10 06:43:36;;;;;;;0.30;0.30;;;3.00;99.90;;;3.06;82.14;98580.66;5033272;28;20205;-70
2021/12/10 06:46:06;;;;;;;0.70;0.70;;;3.00;99.90;;;3.10;82.22;98579.50;5038380;28;20228;-69
2021/12/10 06:48:34;;;;;;;1.52;1.35;;;3.00;99.90;;;3.08;81.62;98571.06;5052819;28;20243;-69
2021/12/10 06:51:20;;;;;;;0.80;0.80;;;3.00;99.90;;;3.06;82.48;98578.09;5041046;28;20336;-69
2021/12/10 06:53:47;;;;;;;2.25;1.10;;;3.00;99.90;;;2.99;81.82;98566.59;5033977;28;20198;-70
2021/12/10 06:56:16;;;;;;;0.90;0.90;;;2.90;99.90;;;2.98;82.73;98564.13;5050654;28;20205;-69
2021/12/10 06:58:44;;;;;;;1.38;1.27;;;2.90;99.90;;;2.97;82.63;98553.00;5052084;28;20228;-68
2021/12/10 07:01:23;;;;;;;1.17;1.08;;;2.80;99.90;;;3.01;82.30;98556.97;5051493;28;20236;-69
2021/12/10 07:03:53;;;;;;;0.95;0.80;;;2.90;99.90;;;3.00;82.57;98546.81;5053028;28;20219;-70
2021/12/10 07:06:22;;;;;;;0.70;0.70;;;2.90;99.90;;;3.03;82.10;98544.81;5051884;28;20212;-69
2021/12/10 07:08:50;;;;;;;0.40;0.40;;;3.00;99.90;;;3.12;81.16;98546.72;5052677;28;20230;-69
2021/12/10 07:11:20;;;;;;;3.00;1.30;;;3.00;99.90;;;3.11;80.64;98534.75;5051450;28;20217;-69
2021/12/10 07:13:51;;;;;;;0.60;0.60;;;3.10;99.90;;;3.12;80.70;98538.16;5052574;28;20227;-69
2021/12/10 07:16:22;;;;;;;1.38;0.80;;;3.10;99.90;;;3.05;80.81;98530.06;5052588;28;20193;-69
2021/12/10 07:18:52;;;;;;;0.40;0.40;;;2.90;99.90;;;3.06;80.36;98526.56;5054504;28;20308;-67
2021/12/10 07:21:19;;;;;;;0.80;0.80;;;3.00;99.90;;;3.14;80.03;98524.22;5050911;28;20206;-69
2021/12/10 07:23:49;;;;;;;0.55;0.55;;;3.00;99.90;;;3.18;79.77;98517.06;5051043;28;20219;-69
2021/12/10 07:26:16;;;;;;;0.40;0.40;;;3.10;99.90;;;3.17;79.43;98523.97;5035088;28;20211;-68
2021/12/10 07:28:43;;;;;;;0.73;0.60;;;3.10;99.90;;;3.17;79.86;98510.28;5050357;28;20259;-70
2021/12/10 07:31:13;;;;;;;3.90;1.10;;;3.10;99.90;;;3.17;79.82;98512.03;5053826;28;20271;-69
2021/12/10 07:33:41;;;;;;;0.57;0.57;;;3.10;99.90;;;3.22;79.33;98507.34;5051797;28;20197;-69
2021/12/10 07:36:09;;;;;;;1.63;1.10;;;3.10;99.90;;;3.27;79.03;98502.69;5052199;28;20688;-69
2021/12/10 07:38:36;;;;;;;0.77;0.75;;;3.20;99.90;;;3.39;77.56;98502.56;5050058;28;20225;-69
2021/12/10 07:41:06;;;;;;;1.10;1.10;;;3.30;99.90;;;3.34;77.83;98503.88;5052159;28;20201;-68
2021/12/10 07:43:36;;;;;;;0.90;0.90;;;3.30;99.90;;;3.44;76.89;98492.72;5051898;28;20292;-69
2021/12/10 07:46:04;;;;;;;0.68;0.47;;;3.40;99.90;;;3.47;76.74;98499.41;5050798;28;20208;-69
2021/12/10 07:48:34;;;;;;;1.38;1.30;;;3.40;99.90;;;3.51;76.62;98503.41;5051938;28;20232;-69
2021/12/10 07:51:11;;;;;;;1.30;1.20;;;3.40;99.90;;;3.65;75.44;98506.56;5051126;28;20271;-69
2021/12/10 07:53:39;;;;;;;1.58;1.48;;;3.60;99.90;;;3.65;75.64;98519.44;5034897;28;21273;-69
2021/12/10 07:56:10;;;;;;;0.65;0.50;;;3.60;99.90;;;3.67;74.94;98504.66;5051057;28;20288;-68
2021/12/10 07:58:40;;;;;;;0.45;0.45;;;3.60;99.90;;;3.69;74.89;98507.13;5050694;28;20217;-70
2021/12/10 08:01:15;;;;;;;1.20;1.10;;;3.60;99.90;;;3.78;75.12;98512.41;5044939;28;20202;-69
2021/12/10 08:03:44;;;;;;;0.65;0.65;;;3.70;99.90;;;3.86;74.54;98504.06;5038188;28;20258;-69
2021/12/10 08:06:11;;;;;;;1.13;1.00;;;3.80;99.90;;;3.78;73.87;98509.00;5050338;28;20236;-68
2021/12/10 08:08:38;;;;;;;2.58;1.50;;;3.80;99.90;;;3.87;74.17;98508.28;5051520;28;20300;-68
2021/12/10 08:11:06;;;;;;;0.40;0.40;;;3.80;99.90;;;3.91;74.49;98514.84;5051707;28;20225;-68
2021/12/10 08:13:33;;;;;;;0.60;0.60;;;3.90;99.90;;;3.80;73.91;98507.13;5048911;28;20586;-69
2021/12/10 08:16:01;;;;;;;0.85;0.82;;;3.90;99.90;;;3.87;74.42;98510.88;5059193;28;20208;-68
2021/12/10 08:18:28;;;;;;;1.85;1.40;;;3.90;99.90;;;3.92;74.36;98506.97;5051588;28;20745;-67
2021/12/10 08:20:56;;;;;;;0.30;0.30;;;3.90;99.90;;;4.02;74.38;98516.59;5051450;28;20201;-68
2021/12/10 08:23:23;;;;;;;0.73;0.73;;;4.00;99.90;;;4.03;74.32;98516.47;5050177;28;20291;-68
2021/12/10 08:25:51;;;;;;;1.00;1.00;;;4.00;99.90;;;4.00;73.94;98511.56;5051842;28;20203;-69
2021/12/10 08:28:22;;;;;;;1.50;1.40;;;3.90;99.90;;;3.87;74.72;98513.44;5049912;28;20225;-68
2021/12/10 08:30:50;;;;;;;2.53;0.68;;;3.80;99.90;;;3.85;74.30;98520.50;5036839;28;20218;-69
2021/12/10 08:33:17;;;;;;;2.75;1.70;;;3.90;99.90;;;3.87;75.25;98506.53;5037314;28;20201;-69
2021/12/10 08:35:51;;;;;;;1.75;1.65;;;3.90;99.90;;;4.02;74.59;98511.44;5049927;28;20201;-69
2021/12/10 08:38:19;;;;;;;0.82;0.82;;;4.00;99.90;;;4.08;74.26;98504.03;5047516;28;20226;-69
2021/12/10 08:40:57;;;;;;;3.90;1.10;;;4.10;99.90;;;4.07;74.10;98504.16;5050286;28;20674;-69
2021/12/10 08:43:27;;;;;;;1.05;0.70;;;4.10;99.90;;;4.24;73.31;98499.28;5049239;28;20610;-66
2021/12/10 08:45:54;;;;;;;2.20;1.67;;;4.20;99.90;;;4.33;72.96;98497.72;5055591;28;20212;-69
2021/12/10 08:48:24;;;;;;;4.53;0.73;;;4.40;99.90;;;4.56;72.16;98500.09;5051141;28;20725;-69
2021/12/10 08:50:52;;;;;;;0.85;0.80;;;4.70;99.90;;;4.70;71.62;98501.56;5048025;28;20232;-69
2021/12/10 08:53:19;;;;;;;2.08;1.98;;;4.80;99.90;;;4.78;70.28;98493.19;5050559;28;20236;-69
2021/12/10 08:55:51;;;;;;;1.73;1.60;;;4.90;99.90;;;4.76;70.46;98497.66;5051312;28;20197;-68
2021/12/10 08:58:19;;;;;;;0.40;0.40;;;4.90;99.90;;;4.89;69.57;98488.78;5049508;28;20225;-69
2021/12/10 09:00:54;;;;;;;0.93;0.93;;;5.00;99.90;;;4.93;69.90;98489.34;5038966;28;20202;-69
2021/12/10 09:03:42;;;;;;;0.63;0.63;;;5.00;99.90;;;4.90;69.61;98489.59;5044487;28;20205;-69
2021/12/10 09:06:10;;;;;;;1.55;1.08;;;5.00;99.90;;;4.85;69.67;98484.81;5036717;28;20225;-68
2021/12/10 09:08:38;;;;;;;3.05;0.90;;;4.90;99.90;;;4.61;69.89;98487.63;5043844;28;20893;-68
2021/12/10 09:11:08;;;;;;;0.30;0.30;;;4.70;99.90;;;4.80;70.01;98468.03;5049329;28;20221;-68
2021/12/10 09:13:36;;;;;;;3.90;1.95;;;4.80;99.90;;;4.69;70.21;98467.16;5049642;28;20688;-69
2021/12/10 09:16:17;;;;;;;1.27;1.17;;;4.80;99.90;;;4.73;69.84;98455.63;5046392;28;20210;-67
2021/12/10 09:18:44;;;;;;;0.77;0.77;;;4.80;99.90;;;4.75;69.10;98449.53;5050688;28;20217;-67
2021/12/10 09:21:11;;;;;;;1.77;1.08;;;4.70;99.90;;;4.64;69.96;98448.63;5049267;28;20197;-68
2021/12/10 09:23:39;;;;;;;3.45;2.05;;;4.60;99.90;;;4.62;70.23;98441.97;5051337;28;20209;-68
2021/12/10 09:26:12;;;;;;;0.95;0.68;;;4.60;99.90;;;4.67;70.35;98432.91;5033868;28;20209;-69
2021/12/10 09:28:42;;;;;;;1.00;1.00;;;4.60;99.90;;;4.75;70.16;98440.00;5031767;28;20230;-69
2021/12/10 09:31:10;;;;;;;0.70;0.60;;;4.70;99.90;;;4.73;70.30;98436.72;5044335;28;20240;-69
2021/12/10 09:33:38;;;;;;;1.52;1.35;;;4.70;99.90;;;4.78;70.70;98438.94;5049212;28;20216;-70
2021/12/10 09:36:06;;;;;;;1.75;1.65;;;4.80;99.90;;;4.87;70.62;98438.19;5049584;28;20205;-69
2021/12/10 09:38:33;;;;;;;0.65;0.65;;;4.80;99.90;;;4.87;69.98;98436.41;5051114;28;20624;-71
2021/12/10 09:41:04;;;;;;;5.97;1.65;;;4.90;99.90;;;4.85;70.51;98424.56;5050122;28;20472;-70
2021/12/10 09:43:32;;;;;;;1.90;1.70;;;4.80;99.90;;;4.78;70.52;98415.69;5049178;28;20228;-67
2021/12/10 09:46:01;;;;;;;1.45;1.00;;;4.70;99.90;;;4.75;70.00;98427.09;5050584;28;20296;-68
2021/12/10 09:48:28;;;;;;;0.70;0.70;;;4.80;99.90;;;4.75;69.61;98418.53;5047130;28;20226;-69
2021/12/10 09:51:12;;;;;;;1.67;1.58;;;4.70;99.90;;;4.72;69.74;98410.09;5049531;28;20228;-69
2021/12/10 09:53:46;;;;;;;2.20;0.85;;;4.70;99.90;;;4.78;69.89;98405.34;5050386;28;20193;-69
2021/12/10 09:56:16;;;;;;;1.45;1.20;;;4.70;99.90;;;4.71;69.30;98405.03;5051499;28;20211;-70
2021/12/10 09:58:48;;;;;;;1.75;1.55;;;4.70;99.90;;;4.68;70.11;98415.63;5048678;28;20221;-70
2021/12/10 10:01:42;;;;;;;1.70;1.60;;;4.60;99.90;;;4.70;69.71;98416.34;5049916;28;20220;-70
2021/12/10 10:04:14;;;;;;;1.00;0.98;;;4.70;99.90;;;4.66;69.80;98413.16;5047717;28;20666;-70
2021/12/10 10:06:46;;;;;;;1.65;1.08;;;4.60;99.90;;;4.68;69.89;98403.53;5051046;28;20592;-70
2021/12/10 10:09:18;;;;;;;0.60;0.60;;;4.60;99.90;;;4.62;70.78;98403.25;5049591;28;20221;-69
2021/12/10 10:11:57;;;;;;;0.60;0.60;;;4.60;99.90;;;4.62;70.01;98401.44;5050981;28;20220;-67
2021/12/10 10:14:25;;;;;;;0.82;0.82;;;4.60;99.90;;;4.57;70.13;98395.88;5050237;28;20201;-68
2021/12/10 10:16:54;;;;;;;0.70;0.70;;;4.50;99.90;;;4.57;69.23;98401.03;5050043;28;20232;-68
2021/12/10 10:19:22;;;;;;;0.80;0.80;;;4.50;99.90;;;4.53;70.71;98404.81;5049193;28;20221;-70
2021/12/10 10:21:54;;;;;;;2.22;1.20;;;4.50;99.90;;;4.53;70.44;98404.00;5049600;28;20205;-70
2021/12/10 10:24:23;;;;;;;1.33;1.25;;;4.50;99.90;;;4.50;71.09;98399.06;5049356;28;20208;-70
2021/12/10 10:27:04;;;;;;;1.50;1.10;;;4.40;99.90;;;4.43;71.54;98393.59;5050119;28;20614;-68
2021/12/10 10:29:35;;;;;;;1.15;1.15;;;4.40;99.90;;;4.47;71.32;98394.97;5049466;28;20217;-70
2021/12/10 10:32:14;;;;;;;0.70;0.68;;;4.40;99.90;;;4.51;71.07;98386.06;5049054;28;20221;-68
2021/12/10 10:34:53;;;;;;;8.68;0.82;;;4.50;99.90;;;4.50;71.08;98378.41;5043161;28;20194;-69
2021/12/10 10:37:22;;;;;;;1.35;1.25;;;4.40;99.90;;;4.53;71.12;98379.00;5036887;28;20837;-69
2021/12/10 10:39:49;;;;;;;1.15;1.05;;;4.50;99.90;;;4.53;71.03;98376.41;5060456;22;20336;-64
2021/12/10 10:42:24;;;;;;;0.98;0.98;;;4.50;99.90;;;4.47;71.53;98379.47;5038292;28;20662;-64
2021/12/10 10:44:58;;;;;;;0.60;0.60;;;4.40;99.90;;;4.55;71.15;98381.44;5042511;28;20212;-64
2021/12/10 10:47:26;;;;;;;1.50;0.75;;;4.50;99.90;;;4.54;71.28;98380.63;5045359;28;20303;-65
2021/12/10 10:50:00;;;;;;;1.00;0.93;;;4.50;99.90;;;4.50;71.43;98374.06;5037736;28;20226;-64
2021/12/10 10:52:36;;;;;;;0.80;0.80;;;4.50;99.90;;;4.46;71.21;98372.69;5027983;28;20652;-65
2021/12/10 10:55:11;;;;;;;1.70;1.42;;;4.40;99.90;;;4.39;71.73;98373.31;5018107;28;20195;-64
2021/12/10 10:57:56;;;;;;;0.60;0.60;;;4.40;99.90;;;4.48;71.46;98378.53;5011116;28;20209;-65
2021/12/10 11:00:28;;;;;;;0.68;0.65;;;4.40;99.90;;;4.35;72.04;98370.16;5020942;28;20240;-64